Time;durP1;ratioP1;P1;durP2;ratioP2;P2;SDS_P1;SDS_P2;PMS_P1;PMS_P2;Temp;Humidity;BMP_temperature;BMP_pressure;BME280_temperature;BME280_humidity;BME280_pressure;Samples;Min_cycle;Max_cycle;Signal;HPM_P1;HPM_P2
2021/12/31 00:02:13;;;;;;;9.48;4.78;;;14.00;73.50;;;;;;5133182;27;20084;-73
2021/12/31 00:04:39;;;;;;;8.38;4.40;;;14.00;73.60;;;;;;5131225;27;20031;-73
2021/12/31 00:07:05;;;;;;;2.53;1.80;;;14.00;73.70;;;;;;5134012;27;20031;-73
2021/12/31 00:09:30;;;;;;;3.22;1.70;;;14.00;73.80;;;;;;5119040;27;20019;-73
2021/12/31 00:11:56;;;;;;;2.90;1.70;;;13.90;73.80;;;;;;5133277;27;20023;-74
2021/12/31 00:14:22;;;;;;;3.10;1.45;;;14.00;74.00;;;;;;5097228;27;20059;-73
2021/12/31 00:16:48;;;;;;;2.30;1.52;;;13.90;74.00;;;;;;5133769;27;20031;-73
2021/12/31 00:19:15;;;;;;;2.67;1.70;;;13.90;74.00;;;;;;5132625;27;20041;-74
2021/12/31 00:21:44;;;;;;;2.88;1.70;;;13.90;74.00;;;;;;5133685;27;20019;-73
2021/12/31 00:24:10;;;;;;;3.78;2.50;;;13.90;74.00;;;;;;5114142;27;20031;-73
2021/12/31 00:26:35;;;;;;;5.57;3.00;;;13.90;74.00;;;;;;5117154;27;20030;-73
2021/12/31 00:29:01;;;;;;;4.10;2.35;;;13.90;73.80;;;;;;5127627;27;20027;-73
2021/12/31 00:31:27;;;;;;;2.72;1.42;;;13.90;73.60;;;;;;5115196;27;20407;-73
2021/12/31 00:33:53;;;;;;;1.83;1.45;;;13.90;74.10;;;;;;5114036;27;20041;-73
2021/12/31 00:36:19;;;;;;;1.40;0.82;;;13.90;73.40;;;;;;5131644;27;20061;-73
2021/12/31 00:38:44;;;;;;;1.38;0.82;;;13.90;73.30;;;;;;5133578;27;20058;-73
2021/12/31 00:41:10;;;;;;;0.93;0.90;;;13.90;73.30;;;;;;5114604;27;20035;-73
2021/12/31 00:43:36;;;;;;;2.17;0.77;;;13.90;73.30;;;;;;5132559;27;20068;-72
2021/12/31 00:46:02;;;;;;;0.75;0.70;;;13.90;73.30;;;;;;5130104;27;20135;-73
2021/12/31 00:48:29;;;;;;;2.20;0.90;;;13.90;73.20;;;;;;5115322;27;20034;-73
2021/12/31 00:50:55;;;;;;;1.17;0.60;;;13.90;73.20;;;;;;5132221;27;20035;-73
2021/12/31 00:53:20;;;;;;;1.10;0.70;;;13.90;73.10;;;;;;5128813;27;20475;-73
2021/12/31 00:55:46;;;;;;;3.05;1.00;;;13.90;73.00;;;;;;5124642;27;20066;-73
2021/12/31 00:58:12;;;;;;;1.15;0.68;;;13.90;73.00;;;;;;5129491;27;20058;-73
2021/12/31 01:00:38;;;;;;;0.80;0.70;;;13.90;72.90;;;;;;5114331;28;20022;-73
2021/12/31 01:03:03;;;;;;;1.00;0.70;;;13.90;73.00;;;;;;5114557;28;20405;-73
2021/12/31 01:05:29;;;;;;;1.25;0.60;;;13.90;72.90;;;;;;5131930;27;20024;-73
2021/12/31 01:07:55;;;;;;;4.22;1.05;;;13.90;72.80;;;;;;5133477;28;20031;-73
2021/12/31 01:10:24;;;;;;;1.48;0.75;;;13.90;72.70;;;;;;5131813;28;20064;-73
2021/12/31 01:12:51;;;;;;;1.20;0.80;;;14.00;72.70;;;;;;5132951;28;20033;-73
2021/12/31 01:15:34;;;;;;;2.03;0.80;;;14.00;72.70;;;;;;5132935;27;20015;-73
2021/12/31 01:20:27;;;;;;;0.73;0.70;;;14.00;72.50;;;;;;5135825;27;20361;-73
2021/12/31 01:22:52;;;;;;;1.42;0.80;;;14.00;72.50;;;;;;5136233;27;20712;-73
2021/12/31 01:25:18;;;;;;;1.15;0.60;;;14.00;72.50;;;;;;5135200;27;20015;-73
2021/12/31 01:27:44;;;;;;;0.75;0.75;;;14.00;72.40;;;;;;5125708;27;20024;-73
2021/12/31 01:30:16;;;;;;;0.70;0.68;;;13.90;73.00;;;;;;5135649;27;20103;-74
2021/12/31 01:32:43;;;;;;;0.93;0.70;;;13.90;72.30;;;;;;5133620;27;20027;-73
2021/12/31 01:35:09;;;;;;;1.67;0.73;;;13.90;72.20;;;;;;5133685;27;20068;-73
2021/12/31 01:37:35;;;;;;;0.65;0.60;;;13.90;72.20;;;;;;5117598;27;20050;-74
2021/12/31 01:40:01;;;;;;;0.80;0.80;;;13.90;72.20;;;;;;5136944;27;20484;-74
2021/12/31 01:42:32;;;;;;;1.52;0.90;;;13.90;72.20;;;;;;5136043;27;20106;-73
2021/12/31 01:45:11;;;;;;;1.23;1.08;;;13.90;72.20;;;;;;5102980;27;20031;-74
2021/12/31 01:47:55;;;;;;;2.42;1.35;;;13.90;72.20;;;;;;5133982;27;20034;-73
2021/12/31 01:50:23;;;;;;;;;;;13.90;72.30;;;;;;5134973;27;20087;-73
2021/12/31 01:52:48;;;;;;;1.23;1.10;;;13.90;72.10;;;;;;5121018;27;19907;-73
2021/12/31 01:55:14;;;;;;;1.20;1.10;;;13.90;72.10;;;;;;5101081;27;20027;-74
2021/12/31 01:57:41;;;;;;;1.88;1.20;;;13.90;72.00;;;;;;5135312;27;20062;-74
2021/12/31 02:00:09;;;;;;;1.23;1.13;;;13.90;72.00;;;;;;5135957;27;20031;-73
2021/12/31 02:02:35;;;;;;;2.90;1.05;;;13.80;72.00;;;;;;5136059;27;20438;-74
2021/12/31 02:05:03;;;;;;;1.77;0.90;;;13.80;72.10;;;;;;5135539;27;20034;-74
2021/12/31 02:07:30;;;;;;;1.25;0.95;;;13.80;72.00;;;;;;5135969;27;20099;-74
2021/12/31 02:09:55;;;;;;;0.77;0.77;;;13.80;72.00;;;;;;5120756;27;20034;-74
2021/12/31 02:12:24;;;;;;;1.90;1.20;;;13.70;72.00;;;;;;5135574;27;20031;-74
2021/12/31 02:14:51;;;;;;;1.33;0.73;;;13.70;71.90;;;;;;5135023;27;20015;-74
2021/12/31 02:17:17;;;;;;;4.18;0.73;;;13.70;71.90;;;;;;5118175;27;20115;-73
2021/12/31 02:19:59;;;;;;;1.67;0.82;;;13.60;71.90;;;;;;5132667;27;20145;-74
2021/12/31 02:22:27;;;;;;;1.02;0.73;;;13.50;71.80;;;;;;5135672;27;20038;-73
2021/12/31 02:24:55;;;;;;;1.48;0.73;;;13.50;71.90;;;;;;5135409;27;20069;-74
2021/12/31 02:27:24;;;;;;;3.30;0.70;;;13.40;71.90;;;;;;5108967;27;20411;-74
2021/12/31 02:29:50;;;;;;;2.58;0.70;;;13.40;71.90;;;;;;5136319;27;20178;-74
2021/12/31 02:32:16;;;;;;;0.93;0.60;;;13.30;72.00;;;;;;5116759;27;20524;-74
2021/12/31 02:34:42;;;;;;;1.13;0.65;;;13.20;72.00;;;;;;5135021;27;20032;-74
2021/12/31 02:37:08;;;;;;;1.38;0.70;;;13.20;72.00;;;;;;5135109;27;20088;-74
2021/12/31 02:39:38;;;;;;;2.67;0.80;;;13.10;71.90;;;;;;5135502;27;20027;-74
2021/12/31 02:42:04;;;;;;;1.52;0.63;;;13.00;71.90;;;;;;5135215;27;20118;-74
2021/12/31 02:44:30;;;;;;;0.85;0.70;;;13.00;72.00;;;;;;5134671;27;20029;-73
2021/12/31 02:46:55;;;;;;;0.73;0.70;;;12.90;72.10;;;;;;5134904;27;20387;-74
2021/12/31 02:49:24;;;;;;;4.55;0.70;;;12.80;72.10;;;;;;5130907;27;20460;-73
2021/12/31 02:51:50;;;;;;;0.80;0.80;;;12.70;72.00;;;;;;5135908;27;20020;-73
2021/12/31 02:54:16;;;;;;;1.58;0.80;;;12.60;72.10;;;;;;5134008;27;20060;-74
2021/12/31 02:56:42;;;;;;;1.67;0.80;;;12.60;72.20;;;;;;5096574;28;20027;-74
2021/12/31 02:59:10;;;;;;;1.17;0.63;;;12.50;72.20;;;;;;5108990;27;20429;-73
2021/12/31 03:01:36;;;;;;;1.50;0.95;;;12.40;72.30;;;;;;5123416;27;20019;-73
2021/12/31 03:04:03;;;;;;;2.22;0.80;;;12.30;72.30;;;;;;5134301;27;20522;-73
2021/12/31 03:06:30;;;;;;;3.60;0.82;;;12.30;72.40;;;;;;5135256;27;20466;-73
2021/12/31 03:08:58;;;;;;;1.85;0.80;;;12.20;72.70;;;;;;5134659;27;20102;-73
2021/12/31 03:11:24;;;;;;;0.70;0.70;;;12.10;72.60;;;;;;5134837;27;20027;-73
2021/12/31 03:13:54;;;;;;;1.73;0.68;;;12.00;72.70;;;;;;5130086;27;20027;-74
2021/12/31 03:16:24;;;;;;;0.77;0.70;;;12.00;72.80;;;;;;5116220;27;20027;-73
2021/12/31 03:18:51;;;;;;;0.60;0.60;;;11.90;72.90;;;;;;5133815;27;20015;-74
2021/12/31 03:21:22;;;;;;;0.80;0.70;;;11.80;72.90;;;;;;5116196;27;20096;-74
2021/12/31 03:23:50;;;;;;;1.77;0.75;;;11.80;73.00;;;;;;5133866;27;20391;-74
2021/12/31 03:26:17;;;;;;;0.95;0.90;;;11.70;73.10;;;;;;5135255;27;20015;-74
2021/12/31 03:28:42;;;;;;;1.13;0.80;;;11.60;73.20;;;;;;5114488;27;20467;-74
2021/12/31 03:31:08;;;;;;;3.03;1.00;;;11.60;73.40;;;;;;5133213;27;20045;-74
2021/12/31 03:33:34;;;;;;;0.80;0.70;;;11.50;73.40;;;;;;5116084;27;20033;-74
2021/12/31 03:35:59;;;;;;;1.42;0.93;;;11.50;73.50;;;;;;5133090;27;20032;-74
2021/12/31 03:38:25;;;;;;;2.05;0.60;;;11.40;73.40;;;;;;5133248;27;20047;-74
2021/12/31 03:40:51;;;;;;;0.77;0.70;;;11.40;73.40;;;;;;5134026;27;20027;-74
2021/12/31 03:43:16;;;;;;;0.63;0.63;;;11.30;74.00;;;;;;5133300;27;20435;-74
2021/12/31 03:45:42;;;;;;;1.30;0.80;;;11.30;73.40;;;;;;5133773;27;20087;-73
2021/12/31 03:48:08;;;;;;;1.55;0.70;;;11.20;73.30;;;;;;5134065;27;20527;-73
2021/12/31 03:50:34;;;;;;;1.10;0.90;;;11.10;73.20;;;;;;5132858;27;20057;-73
2021/12/31 03:52:59;;;;;;;2.28;0.90;;;11.00;73.20;;;;;;5134672;27;20058;-73
2021/12/31 03:55:25;;;;;;;2.03;1.27;;;11.00;73.20;;;;;;5115296;27;20142;-74
2021/12/31 03:57:51;;;;;;;0.93;0.85;;;10.90;73.10;;;;;;5133074;27;20039;-73
2021/12/31 04:00:17;;;;;;;2.85;1.42;;;10.90;73.30;;;;;;5133455;27;20087;-73
2021/12/31 04:02:43;;;;;;;1.60;1.50;;;10.80;73.40;;;;;;5132485;27;20383;-74
2021/12/31 04:05:09;;;;;;;1.85;1.40;;;10.80;73.60;;;;;;5129538;27;20027;-73
2021/12/31 04:07:34;;;;;;;3.47;1.42;;;10.70;73.70;;;;;;5133029;27;20382;-74
2021/12/31 04:10:00;;;;;;;4.18;1.20;;;10.70;73.80;;;;;;5115043;27;20122;-74
2021/12/31 04:12:26;;;;;;;2.20;1.40;;;10.60;73.70;;;;;;5132943;27;20390;-74
2021/12/31 04:14:51;;;;;;;1.17;1.08;;;10.50;73.50;;;;;;5133506;27;20027;-73
2021/12/31 04:17:17;;;;;;;3.30;0.90;;;10.50;74.10;;;;;;5133259;27;20471;-74
2021/12/31 04:19:43;;;;;;;2.20;1.00;;;10.40;73.30;;;;;;5124690;27;20030;-73
2021/12/31 04:22:12;;;;;;;1.60;1.02;;;10.40;73.30;;;;;;5094824;28;20028;-73
2021/12/31 04:24:52;;;;;;;4.90;1.50;;;10.30;73.40;;;;;;5125377;27;20026;-73
2021/12/31 04:27:19;;;;;;;1.33;1.08;;;10.20;73.70;;;;;;5127421;27;20395;-73
2021/12/31 04:29:51;;;;;;;4.93;1.20;;;10.20;74.10;;;;;;5131469;27;20054;-73
2021/12/31 04:32:21;;;;;;;1.80;1.50;;;10.10;74.40;;;;;;5114719;27;20027;-73
2021/12/31 04:34:47;;;;;;;1.88;1.40;;;10.10;74.70;;;;;;5131917;27;20016;-73
2021/12/31 04:37:12;;;;;;;1.30;1.20;;;10.00;74.80;;;;;;5115082;27;20042;-73
2021/12/31 04:39:38;;;;;;;1.63;1.27;;;10.00;74.80;;;;;;5131928;27;20027;-73
2021/12/31 04:42:04;;;;;;;1.60;1.10;;;9.90;74.90;;;;;;5133613;27;20391;-73
2021/12/31 04:44:29;;;;;;;1.27;1.17;;;9.90;75.00;;;;;;5132603;27;20031;-73
2021/12/31 04:46:55;;;;;;;3.60;1.30;;;9.80;75.10;;;;;;5132616;27;20468;-73
2021/12/31 04:49:21;;;;;;;1.48;1.38;;;9.80;75.10;;;;;;5131185;27;20035;-73
2021/12/31 04:51:46;;;;;;;1.35;1.25;;;9.80;75.20;;;;;;5128929;27;20023;-73
2021/12/31 04:54:15;;;;;;;1.48;1.20;;;9.80;75.20;;;;;;5133175;27;20031;-73
2021/12/31 04:56:43;;;;;;;3.75;1.60;;;9.70;75.10;;;;;;5114503;28;20404;-73
2021/12/31 04:59:09;;;;;;;1.55;1.25;;;9.70;75.10;;;;;;5125772;28;20080;-73
2021/12/31 05:01:35;;;;;;;2.15;1.33;;;9.70;75.10;;;;;;5112612;28;20031;-73
2021/12/31 05:04:01;;;;;;;1.45;1.15;;;9.70;75.00;;;;;;5133198;28;20372;-73
2021/12/31 05:06:27;;;;;;;3.50;2.85;;;9.60;74.90;;;;;;5132709;27;20483;-73
2021/12/31 05:08:53;;;;;;;3.83;1.10;;;9.60;74.80;;;;;;5132357;28;20027;-73
2021/12/31 05:11:19;;;;;;;0.65;0.65;;;9.60;74.60;;;;;;5114663;28;20051;-73
2021/12/31 05:13:46;;;;;;;4.18;1.17;;;9.50;74.50;;;;;;5133566;28;20023;-73
2021/12/31 05:16:11;;;;;;;2.17;0.63;;;9.50;74.30;;;;;;5114580;28;20536;-73
2021/12/31 05:18:37;;;;;;;0.82;0.82;;;9.40;74.40;;;;;;5131842;28;20088;-73
2021/12/31 05:21:04;;;;;;;0.85;0.85;;;9.40;74.40;;;;;;5132320;27;20059;-73
2021/12/31 05:23:29;;;;;;;0.70;0.70;;;9.30;74.50;;;;;;5131380;28;20468;-73
2021/12/31 05:25:55;;;;;;;3.08;1.83;;;9.30;74.50;;;;;;5132803;27;20023;-73
2021/12/31 05:28:21;;;;;;;6.82;2.90;;;9.30;74.50;;;;;;5118310;27;20471;-73
2021/12/31 05:30:46;;;;;;;4.90;3.35;;;9.20;74.50;;;;;;5130342;27;20043;-73
2021/12/31 05:33:12;;;;;;;13.18;4.70;;;9.20;74.60;;;;;;5125666;28;20020;-73
2021/12/31 05:35:37;;;;;;;6.97;4.85;;;9.10;74.50;;;;;;5129454;28;20027;-73
2021/12/31 05:38:03;;;;;;;13.73;6.63;;;9.10;74.50;;;;;;5116605;28;20100;-73
2021/12/31 05:40:29;;;;;;;15.73;7.78;;;9.00;74.50;;;;;;5132035;28;20382;-73
2021/12/31 05:42:54;;;;;;;15.98;8.05;;;9.00;74.50;;;;;;5131746;28;20035;-73
2021/12/31 05:45:20;;;;;;;8.80;4.97;;;9.00;74.50;;;;;;5131535;28;20498;-73
2021/12/31 05:47:47;;;;;;;10.48;5.60;;;9.00;74.50;;;;;;5131592;27;20440;-73
2021/12/31 05:50:27;;;;;;;10.65;5.75;;;8.90;74.60;;;;;;5132255;28;20023;-73
2021/12/31 05:52:54;;;;;;;12.85;6.22;;;8.90;74.70;;;;;;5127627;28;20027;-73
2021/12/31 05:55:20;;;;;;;11.15;6.80;;;8.90;74.60;;;;;;5131418;28;20475;-73
2021/12/31 05:57:45;;;;;;;9.65;5.10;;;8.80;74.60;;;;;;5131796;27;20050;-73
2021/12/31 06:00:11;;;;;;;9.65;4.82;;;8.80;74.60;;;;;;5132187;28;20027;-73
2021/12/31 06:02:37;;;;;;;7.32;4.82;;;8.80;74.60;;;;;;5119325;27;20028;-73
2021/12/31 06:05:03;;;;;;;6.32;4.30;;;8.70;74.70;;;;;;5134862;27;20026;-73
2021/12/31 06:07:29;;;;;;;7.47;3.67;;;8.70;74.70;;;;;;5136653;27;20024;-73
2021/12/31 06:09:54;;;;;;;6.63;3.58;;;8.60;74.60;;;;;;5134605;27;20085;-73
2021/12/31 06:12:20;;;;;;;6.22;3.83;;;8.60;74.70;;;;;;5117820;27;20023;-73
2021/12/31 06:14:46;;;;;;;10.32;4.25;;;8.60;74.70;;;;;;5116641;27;20479;-73
2021/12/31 06:17:12;;;;;;;7.15;3.78;;;8.60;74.60;;;;;;5136194;27;20051;-73
2021/12/31 06:19:39;;;;;;;6.13;3.88;;;8.60;74.50;;;;;;5135207;27;20026;-73
2021/12/31 06:22:04;;;;;;;4.82;3.33;;;8.50;74.40;;;;;;5135129;27;20030;-73
2021/12/31 06:24:30;;;;;;;4.95;3.13;;;8.50;74.50;;;;;;5134688;27;20019;-73
2021/12/31 06:26:56;;;;;;;5.30;2.60;;;8.40;74.50;;;;;;5112932;27;20076;-73
2021/12/31 06:29:21;;;;;;;4.22;2.63;;;8.40;74.50;;;;;;5125527;27;20152;-72
2021/12/31 06:31:47;;;;;;;3.60;1.88;;;8.40;74.50;;;;;;5136313;27;20030;-73
2021/12/31 06:34:13;;;;;;;3.85;2.30;;;8.40;74.50;;;;;;5135112;27;20140;-73
2021/12/31 06:36:38;;;;;;;7.13;3.60;;;8.30;74.40;;;;;;5135993;27;20479;-74
2021/12/31 06:39:04;;;;;;;6.05;3.65;;;8.30;74.50;;;;;;5133489;27;20058;-74
2021/12/31 06:41:29;;;;;;;6.90;3.95;;;8.20;74.50;;;;;;5134576;27;20023;-73
2021/12/31 06:43:55;;;;;;;5.38;3.45;;;8.20;74.60;;;;;;5134697;27;20027;-74
2021/12/31 06:46:21;;;;;;;4.50;3.10;;;8.20;74.60;;;;;;5135574;27;20440;-73
2021/12/31 06:48:47;;;;;;;5.03;2.47;;;8.20;74.60;;;;;;5134164;27;20027;-73
2021/12/31 06:51:13;;;;;;;3.72;2.45;;;8.10;74.60;;;;;;5135136;27;20055;-73
2021/12/31 06:53:40;;;;;;;4.25;1.60;;;8.10;74.60;;;;;;5134620;27;20479;-74
2021/12/31 06:56:05;;;;;;;2.45;1.35;;;8.10;74.50;;;;;;5131306;27;20039;-73
2021/12/31 06:58:31;;;;;;;2.15;1.35;;;8.00;74.50;;;;;;5128950;27;20027;-73
2021/12/31 07:00:57;;;;;;;1.40;1.15;;;8.00;74.60;;;;;;5129193;27;20026;-73
2021/12/31 07:03:22;;;;;;;2.70;1.30;;;8.00;74.70;;;;;;5133894;27;20035;-73
2021/12/31 07:05:48;;;;;;;2.47;1.20;;;7.90;74.80;;;;;;5126111;27;20478;-73
2021/12/31 07:08:14;;;;;;;8.63;1.83;;;7.90;74.80;;;;;;5133906;27;20035;-73
2021/12/31 07:10:39;;;;;;;1.20;1.10;;;7.90;74.90;;;;;;5133005;27;20015;-73
2021/12/31 07:13:10;;;;;;;1.27;1.00;;;7.90;75.10;;;;;;5132703;27;20383;-73
2021/12/31 07:15:41;;;;;;;2.47;1.30;;;7.90;75.20;;;;;;5135497;27;20083;-73
2021/12/31 07:18:08;;;;;;;4.82;1.23;;;7.80;75.30;;;;;;5115938;27;20035;-73
2021/12/31 07:20:34;;;;;;;1.58;1.05;;;7.80;75.50;;;;;;5133089;27;20482;-73
2021/12/31 07:23:05;;;;;;;2.95;1.20;;;7.80;75.60;;;;;;5132673;27;20126;-73
2021/12/31 07:25:31;;;;;;;1.85;1.20;;;7.90;75.80;;;;;;5135175;27;20068;-74
2021/12/31 07:27:56;;;;;;;2.03;1.50;;;7.80;75.70;;;;;;5121118;27;20498;-73
2021/12/31 07:30:22;;;;;;;4.00;2.08;;;7.90;75.90;;;;;;5133010;27;20035;-73
2021/12/31 07:32:48;;;;;;;2.03;1.50;;;7.90;75.90;;;;;;5133803;27;20057;-73
2021/12/31 07:35:13;;;;;;;20.20;7.65;;;7.90;76.10;;;;;;5133831;27;20463;-73
2021/12/31 07:37:39;;;;;;;22.67;10.20;;;7.90;76.30;;;;;;5117425;27;20035;-73
2021/12/31 07:40:07;;;;;;;9.18;5.15;;;7.90;76.50;;;;;;5122887;27;20098;-73
2021/12/31 07:42:32;;;;;;;12.75;7.43;;;8.00;76.70;;;;;;5133855;27;20367;-73
2021/12/31 07:44:58;;;;;;;12.23;8.27;;;8.00;76.90;;;;;;5133945;27;20026;-73
2021/12/31 07:47:26;;;;;;;15.80;9.57;;;8.00;77.10;;;;;;5116145;27;20122;-73
2021/12/31 07:49:52;;;;;;;25.92;17.05;;;8.10;77.40;;;;;;5132834;27;20072;-73
2021/12/31 07:52:18;;;;;;;9.18;6.78;;;8.10;77.50;;;;;;5120365;27;20027;-73
2021/12/31 07:54:46;;;;;;;47.47;27.83;;;8.20;77.60;;;;;;5134056;27;20059;-73
2021/12/31 07:57:12;;;;;;;25.60;16.17;;;8.20;77.70;;;;;;5116917;27;20043;-73
2021/12/31 07:59:38;;;;;;;7.20;5.65;;;8.30;78.40;;;;;;5133927;27;20372;-73
2021/12/31 08:02:06;;;;;;;8.85;5.82;;;8.30;78.00;;;;;;5116060;27;20049;-73
2021/12/31 08:04:33;;;;;;;4.20;3.33;;;8.30;78.10;;;;;;5115835;27;20479;-73
2021/12/31 08:06:59;;;;;;;5.85;3.85;;;8.40;78.30;;;;;;5115895;27;20035;-73
2021/12/31 08:09:24;;;;;;;5.82;2.60;;;8.40;78.30;;;;;;5114306;27;20064;-73
2021/12/31 08:11:50;;;;;;;4.72;2.38;;;8.50;78.60;;;;;;5126816;27;20115;-73
2021/12/31 08:14:16;;;;;;;6.15;2.47;;;8.50;78.60;;;;;;5079034;27;20102;-73
2021/12/31 08:16:41;;;;;;;21.55;14.35;;;8.60;78.60;;;;;;5114175;27;20040;-73
2021/12/31 08:19:08;;;;;;;15.75;9.32;;;8.60;78.50;;;;;;5130958;27;20034;-73
2021/12/31 08:21:34;;;;;;;13.05;8.68;;;8.70;78.50;;;;;;5109600;27;20079;-73
2021/12/31 08:24:00;;;;;;;15.25;8.70;;;8.70;78.20;;;;;;5122491;27;20027;-73
2021/12/31 08:26:26;;;;;;;12.52;7.70;;;8.80;78.10;;;;;;5132449;27;20035;-73
2021/12/31 08:28:51;;;;;;;13.00;7.95;;;8.80;77.90;;;;;;5119249;27;20046;-74
2021/12/31 08:31:17;;;;;;;13.57;6.85;;;8.80;77.80;;;;;;5115315;27;20554;-74
2021/12/31 08:33:43;;;;;;;15.02;8.15;;;8.80;77.80;;;;;;5109701;27;20071;-73
2021/12/31 08:36:14;;;;;;;28.13;10.57;;;8.90;77.80;;;;;;5134181;27;20019;-73
2021/12/31 08:38:40;;;;;;;22.52;10.60;;;8.90;77.80;;;;;;5125011;27;20067;-73
2021/12/31 08:41:06;;;;;;;19.80;9.73;;;8.90;77.80;;;;;;5134628;27;20084;-73
2021/12/31 08:43:38;;;;;;;20.25;8.85;;;8.90;77.80;;;;;;5104884;27;20092;-72
2021/12/31 08:46:03;;;;;;;17.70;8.68;;;9.00;78.10;;;;;;5112642;27;20038;-73
2021/12/31 08:48:29;;;;;;;13.43;8.50;;;9.10;78.10;;;;;;5124948;27;20023;-73
2021/12/31 08:50:55;;;;;;;9.27;6.53;;;9.10;78.10;;;;;;5125875;27;20471;-74
2021/12/31 08:53:20;;;;;;;6.85;4.80;;;9.10;78.40;;;;;;5132334;27;20033;-73
2021/12/31 08:55:46;;;;;;;5.53;3.28;;;9.20;78.70;;;;;;5114521;27;20023;-74
2021/12/31 08:58:12;;;;;;;6.63;2.47;;;9.30;78.80;;;;;;5132171;28;20043;-73
2021/12/31 09:00:38;;;;;;;8.02;2.88;;;9.40;79.00;;;;;;5132379;28;20116;-73
2021/12/31 09:03:04;;;;;;;6.47;2.30;;;9.40;79.00;;;;;;5128074;27;20506;-73
2021/12/31 09:05:30;;;;;;;4.43;3.55;;;9.50;79.10;;;;;;5115521;27;20039;-73
2021/12/31 09:07:56;;;;;;;2.40;2.20;;;9.60;79.20;;;;;;5106854;27;20049;-74
2021/12/31 09:10:25;;;;;;;4.88;2.53;;;9.60;79.90;;;;;;5147915;27;20030;-73
2021/12/31 09:12:51;;;;;;;3.90;2.55;;;9.90;79.30;;;;;;5109269;27;20024;-73
2021/12/31 09:15:17;;;;;;;3.30;3.00;;;9.80;79.40;;;;;;5099992;28;20020;-74
2021/12/31 09:17:44;;;;;;;2.88;2.50;;;9.90;79.50;;;;;;5128080;27;20031;-73
2021/12/31 09:20:13;;;;;;;2.35;2.03;;;10.00;79.50;;;;;;5136630;27;20015;-74
2021/12/31 09:22:39;;;;;;;2.60;2.35;;;10.10;79.60;;;;;;5129259;27;20099;-73
2021/12/31 09:25:04;;;;;;;3.10;2.80;;;10.20;79.50;;;;;;5121347;27;20452;-73
2021/12/31 09:27:30;;;;;;;2.70;2.50;;;10.30;79.50;;;;;;5129790;27;20157;-72
2021/12/31 09:29:56;;;;;;;12.18;6.22;;;10.40;79.20;;;;;;5094061;27;20082;-73
2021/12/31 09:32:22;;;;;;;8.93;6.78;;;10.50;78.70;;;;;;5115692;27;20052;-73
2021/12/31 09:34:48;;;;;;;10.73;7.95;;;10.60;78.40;;;;;;5117193;27;20015;-73
2021/12/31 09:37:15;;;;;;;9.68;6.55;;;10.60;78.30;;;;;;5128013;27;20039;-73
2021/12/31 09:39:41;;;;;;;14.02;5.10;;;10.70;78.50;;;;;;5113047;27;20019;-73
2021/12/31 09:42:08;;;;;;;2.95;2.65;;;10.70;78.50;;;;;;5129442;27;20096;-73
2021/12/31 09:44:35;;;;;;;5.90;3.10;;;10.80;78.40;;;;;;5141145;27;20030;-72
2021/12/31 09:47:07;;;;;;;3.20;2.83;;;10.90;78.50;;;;;;5120582;27;20029;-72
2021/12/31 09:49:37;;;;;;;3.10;2.78;;;11.00;78.60;;;;;;5120558;27;20023;-73
2021/12/31 09:52:04;;;;;;;5.10;2.55;;;11.10;78.50;;;;;;5132346;27;20028;-73
2021/12/31 09:54:29;;;;;;;5.38;2.63;;;11.20;78.50;;;;;;5134334;27;20042;-73
2021/12/31 09:56:56;;;;;;;2.85;2.55;;;11.30;78.20;;;;;;5134306;27;20050;-73
2021/12/31 09:59:24;;;;;;;4.03;3.00;;;11.40;77.90;;;;;;5116082;27;20030;-73
2021/12/31 10:01:52;;;;;;;3.70;3.03;;;11.50;77.60;;;;;;5133927;27;20027;-73
2021/12/31 10:04:18;;;;;;;8.15;2.78;;;11.60;77.40;;;;;;5136194;27;20130;-73
2021/12/31 10:07:06;;;;;;;4.53;3.00;;;11.70;77.40;;;;;;5113525;27;20494;-73
2021/12/31 10:09:35;;;;;;;4.63;2.90;;;11.70;77.30;;;;;;5136729;27;20024;-72
2021/12/31 10:12:01;;;;;;;3.47;3.00;;;11.80;77.30;;;;;;5135005;27;20016;-73
2021/12/31 10:14:38;;;;;;;4.05;3.53;;;11.90;77.30;;;;;;5121768;27;20023;-74
2021/12/31 10:17:05;;;;;;;3.95;3.30;;;12.00;77.60;;;;;;5115352;27;20039;-74
2021/12/31 10:19:31;;;;;;;4.60;3.03;;;12.00;77.50;;;;;;5123703;27;20023;-73
2021/12/31 10:21:57;;;;;;;3.45;3.15;;;12.20;77.50;;;;;;5124365;27;20035;-73
2021/12/31 10:24:24;;;;;;;4.32;3.38;;;12.30;77.50;;;;;;5136058;27;20023;-74
2021/12/31 10:26:52;;;;;;;4.15;3.75;;;12.40;77.50;;;;;;5107983;27;20019;-73
2021/12/31 10:29:18;;;;;;;4.28;3.50;;;12.50;78.00;;;;;;5134404;27;20027;-69
2021/12/31 10:31:46;;;;;;;3.92;3.28;;;12.60;77.10;;;;;;5129896;27;20027;-74
2021/12/31 10:34:25;;;;;;;5.55;4.13;;;12.70;77.00;;;;;;5122075;27;20057;-73
2021/12/31 10:36:50;;;;;;;4.95;3.47;;;12.80;76.70;;;;;;5132750;27;20063;-72
2021/12/31 10:39:22;;;;;;;4.53;3.72;;;12.90;76.70;;;;;;5119940;27;20059;-73
2021/12/31 10:41:59;;;;;;;4.82;3.78;;;13.00;76.60;;;;;;5129503;27;20015;-72
2021/12/31 10:44:44;;;;;;;5.68;4.00;;;13.10;76.40;;;;;;5130705;27;20031;-72
2021/12/31 10:47:16;;;;;;;5.43;3.75;;;13.30;76.20;;;;;;5123331;27;20029;-72
2021/12/31 10:50:00;;;;;;;3.88;3.42;;;13.40;76.20;;;;;;5133097;27;20058;-73
2021/12/31 10:52:37;;;;;;;5.30;3.67;;;13.50;76.00;;;;;;5134567;27;20023;-71
2021/12/31 10:55:45;;;;;;;4.78;3.53;;;13.60;76.00;;;;;;5112024;27;20050;-74
2021/12/31 10:58:04;;;;;;;4.68;3.63;;;13.70;76.00;;;;;;5134375;27;20437;-72
2021/12/31 11:00:37;;;;;;;4.65;3.80;;;13.80;76.10;;;;;;5134337;27;20375;-72
2021/12/31 11:03:05;;;;;;;6.88;4.68;;;13.90;76.20;;;;;;5117820;27;20628;-71
2021/12/31 11:05:31;;;;;;;6.10;4.57;;;14.10;76.30;;;;;;5110946;27;20027;-71
2021/12/31 11:08:07;;;;;;;6.80;5.30;;;14.20;76.20;;;;;;5127777;27;20034;-71
2021/12/31 11:10:35;;;;;;;11.90;6.47;;;14.30;75.90;;;;;;5129741;27;20489;-70
2021/12/31 11:13:18;;;;;;;15.18;6.55;;;14.50;75.90;;;;;;5114602;27;20055;-73
2021/12/31 11:15:45;;;;;;;8.55;6.45;;;14.60;75.80;;;;;;5145251;27;20019;-73
2021/12/31 11:18:12;;;;;;;8.38;5.45;;;14.70;75.40;;;;;;5121754;27;20125;-73
2021/12/31 11:20:39;;;;;;;7.57;5.68;;;14.80;74.70;;;;;;5122622;27;20106;-73
2021/12/31 11:23:05;;;;;;;11.38;7.70;;;14.90;74.50;;;;;;5127224;27;20447;-73
2021/12/31 11:25:31;;;;;;;13.00;8.52;;;15.00;74.30;;;;;;5126508;27;20098;-73
2021/12/31 11:27:58;;;;;;;12.13;7.78;;;15.00;74.10;;;;;;5121888;27;20051;-73
2021/12/31 11:30:25;;;;;;;12.38;8.60;;;15.10;74.00;;;;;;5130609;27;20055;-73
2021/12/31 11:32:58;;;;;;;10.15;6.72;;;15.10;73.80;;;;;;5146481;27;20046;-73
2021/12/31 11:35:46;;;;;;;11.18;7.35;;;15.20;73.60;;;;;;5121142;27;20037;-73
2021/12/31 11:38:20;;;;;;;9.45;6.85;;;15.30;73.40;;;;;;5130815;27;20165;-73
2021/12/31 11:40:50;;;;;;;;;;;15.30;73.50;;;;;;5142342;27;20052;-73
2021/12/31 11:43:27;;;;;;;8.52;5.88;;;15.40;73.20;;;;;;5127115;27;20048;-73
2021/12/31 11:46:22;;;;;;;10.57;5.90;;;15.50;73.10;;;;;;5125463;27;20087;-73
2021/12/31 11:48:52;;;;;;;8.10;5.55;;;15.50;72.50;;;;;;5114257;28;20495;-73
2021/12/31 11:51:33;;;;;;;8.45;6.18;;;15.60;72.50;;;;;;5129468;27;20390;-74
2021/12/31 11:53:58;;;;;;;9.18;6.75;;;15.60;71.90;;;;;;5129161;27;20138;-73
2021/12/31 11:59:11;;;;;;;8.55;6.22;;;15.70;71.90;;;;;;5125659;27;20052;-73
2021/12/31 12:01:43;;;;;;;8.60;5.88;;;15.70;71.80;;;;;;5126161;27;20023;-73
2021/12/31 12:04:19;;;;;;;8.10;5.90;;;15.80;72.20;;;;;;5131179;27;20080;-73
2021/12/31 12:06:51;;;;;;;9.18;6.38;;;15.80;71.40;;;;;;5132871;27;20522;-73
2021/12/31 12:09:17;;;;;;;10.27;5.93;;;15.90;71.70;;;;;;5112826;27;20078;-73
2021/12/31 12:12:04;;;;;;;11.88;6.60;;;15.90;71.70;;;;;;5134171;27;20027;-73
2021/12/31 12:14:40;;;;;;;9.40;6.05;;;16.00;71.20;;;;;;5115439;27;20098;-73
2021/12/31 12:17:10;;;;;;;10.07;5.75;;;16.00;71.40;;;;;;5117833;27;21036;-74
2021/12/31 12:19:45;;;;;;;7.68;5.45;;;16.10;71.40;;;;;;5094122;28;20115;-73
2021/12/31 12:22:40;;;;;;;6.95;4.68;;;16.10;70.30;;;;;;5127462;27;20131;-73
2021/12/31 12:25:15;;;;;;;9.05;5.18;;;16.20;70.50;;;;;;5111210;27;20078;-74
2021/12/31 12:27:42;;;;;;;7.68;5.35;;;16.20;70.70;;;;;;5137940;27;21034;-74
2021/12/31 12:30:12;;;;;;;5.57;4.45;;;16.30;70.90;;;;;;5130630;27;20440;-73
2021/12/31 12:33:23;;;;;;;5.47;4.38;;;16.30;70.40;;;;;;5117566;27;20176;-74
2021/12/31 12:35:26;;;;;;;5.15;4.10;;;16.40;70.70;;;;;;5127496;27;20034;-72
2021/12/31 12:38:04;;;;;;;5.75;4.28;;;16.40;70.40;;;;;;5131593;27;20038;-73
2021/12/31 12:40:50;;;;;;;6.88;4.18;;;16.50;69.90;;;;;;5116244;27;20023;-74
2021/12/31 12:43:22;;;;;;;10.00;4.30;;;16.50;69.80;;;;;;5097493;27;20040;-72
2021/12/31 12:45:51;;;;;;;6.35;4.10;;;16.60;69.70;;;;;;5121943;27;20362;-73
2021/12/31 12:48:28;;;;;;;5.03;3.95;;;16.60;69.60;;;;;;5129091;27;20031;-74
2021/12/31 12:50:53;;;;;;;6.15;3.90;;;16.70;69.80;;;;;;5129867;27;20030;-74
2021/12/31 12:53:23;;;;;;;6.55;3.55;;;16.70;69.80;;;;;;5135793;27;20027;-74
2021/12/31 12:55:49;;;;;;;4.35;3.30;;;16.80;69.40;;;;;;5135016;27;20379;-74
2021/12/31 12:58:23;;;;;;;4.30;3.25;;;16.80;69.40;;;;;;5130362;27;20107;-73
2021/12/31 13:00:54;;;;;;;5.32;3.33;;;16.80;68.60;;;;;;5095684;27;20023;-74